Time;durP1;ratioP1;P1;durP2;ratioP2;P2;SDS_P1;SDS_P2;PMS_P1;PMS_P2;Temp;Humidity;BMP_temperature;BMP_pressure;BME280_temperature;BME280_humidity;BME280_pressure;Samples;Min_cycle;Max_cycle;Signal;HPM_P1;HPM_P2
2023/06/25 00:01:22;;;;;;;31.37;7.73;;;29.20;51.40;;;;;;5038606;28;20196;-67
2023/06/25 00:03:51;;;;;;;29.77;8.10;;;29.20;51.40;;;;;;5036859;28;20657;-69
2023/06/25 00:06:19;;;;;;;43.93;9.70;;;29.30;51.50;;;;;;5028216;28;20752;-68
2023/06/25 00:08:46;;;;;;;36.53;8.53;;;29.20;51.60;;;;;;5010873;28;20212;-65
2023/06/25 00:11:13;;;;;;;37.20;8.87;;;29.20;51.50;;;;;;5028899;28;20244;-66
2023/06/25 00:13:40;;;;;;;37.33;8.73;;;29.20;51.50;;;;;;5034093;28;20193;-63
2023/06/25 00:16:07;;;;;;;28.03;8.00;;;29.20;51.50;;;;;;5030880;28;20208;-64
2023/06/25 00:18:34;;;;;;;35.40;8.33;;;29.20;51.50;;;;;;5030393;28;20291;-63
2023/06/25 00:21:03;;;;;;;34.03;7.93;;;29.20;51.50;;;;;;5032746;28;20252;-64
2023/06/25 00:23:30;;;;;;;30.20;7.33;;;29.20;51.50;;;;;;5033908;28;20201;-62
2023/06/25 00:25:57;;;;;;;33.83;7.80;;;29.20;51.50;;;;;;5041416;28;20219;-62
2023/06/25 00:28:23;;;;;;;33.57;8.70;;;29.20;51.50;;;;;;5048053;28;20671;-63
2023/06/25 00:30:50;;;;;;;45.03;9.23;;;29.20;51.50;;;;;;5046556;28;20216;-62
2023/06/25 00:33:18;;;;;;;29.87;8.10;;;29.10;51.50;;;;;;5050076;28;20208;-63
2023/06/25 00:36:08;;;;;;;34.00;8.20;;;29.10;51.50;;;;;;5047066;28;20215;-69
2023/06/25 00:38:37;;;;;;;30.17;8.47;;;29.10;51.50;;;;;;5021956;28;20285;-63
2023/06/25 00:41:04;;;;;;;61.70;10.83;;;29.10;51.50;;;;;;5026732;28;20673;-63
2023/06/25 00:43:31;;;;;;;58.13;10.70;;;29.10;51.50;;;;;;5018914;28;20193;-64
2023/06/25 00:45:58;;;;;;;46.07;9.70;;;29.10;51.50;;;;;;5028737;28;20288;-63
2023/06/25 00:48:25;;;;;;;26.43;7.80;;;29.10;51.50;;;;;;5028618;28;20672;-68
2023/06/25 00:50:52;;;;;;;40.77;9.07;;;29.20;51.60;;;;;;5027568;28;20240;-65
2023/06/25 00:53:21;;;;;;;36.90;8.20;;;29.20;51.60;;;;;;5027989;28;20207;-68
2023/06/25 00:55:50;;;;;;;29.87;7.83;;;29.10;51.50;;;;;;5029671;28;20200;-69
2023/06/25 00:58:21;;;;;;;45.03;9.23;;;29.10;51.50;;;;;;5034291;28;20197;-63
2023/06/25 01:00:49;;;;;;;33.90;8.60;;;29.10;51.50;;;;;;5016024;28;20604;-64
2023/06/25 01:03:26;;;;;;;32.70;8.40;;;29.10;51.60;;;;;;5031962;28;20259;-63
2023/06/25 01:06:02;;;;;;;33.27;8.40;;;29.10;51.50;;;;;;5012374;28;20205;-65
2023/06/25 01:08:32;;;;;;;24.40;7.40;;;29.10;51.50;;;;;;5020425;28;20204;-63
2023/06/25 01:10:59;;;;;;;41.27;8.53;;;29.10;51.50;;;;;;5012195;28;20299;-64
2023/06/25 01:13:25;;;;;;;38.40;8.23;;;29.10;51.50;;;;;;5016835;28;20198;-61
2023/06/25 01:15:52;;;;;;;43.20;9.23;;;29.10;51.50;;;;;;5007966;28;20217;-63
2023/06/25 01:18:22;;;;;;;35.10;8.00;;;29.10;51.50;;;;;;5029045;28;20266;-64
2023/06/25 01:20:52;;;;;;;35.00;8.20;;;29.10;51.50;;;;;;5039377;28;20230;-62
2023/06/25 01:23:21;;;;;;;46.67;8.93;;;29.10;51.60;;;;;;5028454;28;20208;-65
2023/06/25 01:25:48;;;;;;;46.37;8.77;;;29.10;51.60;;;;;;5019144;28;20228;-64
2023/06/25 01:28:19;;;;;;;26.83;6.93;;;29.10;51.60;;;;;;5012034;28;20192;-66
2023/06/25 01:30:51;;;;;;;56.83;9.87;;;29.10;51.60;;;;;;5010401;28;20290;-62
2023/06/25 01:33:19;;;;;;;39.27;8.27;;;29.10;51.60;;;;;;5020562;28;20285;-62
2023/06/25 01:35:46;;;;;;;51.73;9.57;;;29.10;51.60;;;;;;5018631;28;20228;-62
2023/06/25 01:38:13;;;;;;;41.73;9.07;;;29.10;51.60;;;;;;5036820;28;20656;-64
2023/06/25 01:40:41;;;;;;;28.23;7.20;;;29.10;51.60;;;;;;5033116;28;20686;-63
2023/06/25 01:43:08;;;;;;;28.97;7.33;;;29.10;51.60;;;;;;5010476;28;20654;-63
2023/06/25 01:45:35;;;;;;;29.37;7.10;;;29.00;51.60;;;;;;5007857;28;20201;-63
2023/06/25 01:48:02;;;;;;;51.47;9.50;;;29.10;51.70;;;;;;5011857;28;20222;-62
2023/06/25 01:50:29;;;;;;;49.50;9.37;;;29.00;51.60;;;;;;5046880;28;20234;-61
2023/06/25 01:52:56;;;;;;;25.73;7.73;;;29.10;51.60;;;;;;5042178;28;20196;-63
2023/06/25 01:55:22;;;;;;;33.40;7.87;;;29.00;51.60;;;;;;5036272;28;20207;-62
2023/06/25 01:57:51;;;;;;;38.27;8.07;;;29.00;51.60;;;;;;5012826;28;20212;-62
2023/06/25 02:00:18;;;;;;;30.03;7.33;;;29.00;51.60;;;;;;5020842;28;20207;-63
2023/06/25 02:02:45;;;;;;;24.00;6.90;;;29.00;51.60;;;;;;5022380;28;20197;-62
2023/06/25 02:05:12;;;;;;;38.67;8.73;;;29.00;51.60;;;;;;5011770;28;20201;-62
2023/06/25 02:07:39;;;;;;;24.37;6.57;;;29.00;51.60;;;;;;5026395;28;20201;-61
2023/06/25 02:10:06;;;;;;;34.83;8.33;;;29.00;51.60;;;;;;5035348;28;20310;-62
2023/06/25 02:12:33;;;;;;;31.60;7.40;;;29.00;51.60;;;;;;5029486;28;20196;-61
2023/06/25 02:15:02;;;;;;;31.67;7.67;;;29.10;51.70;;;;;;5045106;28;20210;-64
2023/06/25 02:17:29;;;;;;;34.03;8.43;;;29.00;51.60;;;;;;5047190;28;20196;-62
2023/06/25 02:19:55;;;;;;;25.60;7.83;;;29.00;51.60;;;;;;5036534;28;20225;-63
2023/06/25 02:22:22;;;;;;;48.80;9.47;;;29.00;51.60;;;;;;5022305;28;20295;-66
2023/06/25 02:24:49;;;;;;;31.00;7.63;;;29.00;51.60;;;;;;5034491;28;20215;-64
2023/06/25 02:27:16;;;;;;;35.30;7.77;;;29.00;51.60;;;;;;5041940;28;20208;-63
2023/06/25 02:29:43;;;;;;;23.70;7.50;;;29.00;51.60;;;;;;5047827;28;20200;-62
2023/06/25 02:32:11;;;;;;;40.20;8.80;;;29.00;51.60;;;;;;5047743;28;20239;-67
2023/06/25 02:34:38;;;;;;;28.97;7.33;;;29.00;51.60;;;;;;5044420;28;20200;-68
2023/06/25 02:37:13;;;;;;;30.87;7.60;;;29.00;51.60;;;;;;5043412;28;20594;-70
2023/06/25 02:39:40;;;;;;;32.77;8.07;;;29.00;51.60;;;;;;5045657;28;20605;-68
2023/06/25 02:42:07;;;;;;;23.57;7.50;;;29.00;51.70;;;;;;5045654;28;20208;-66
2023/06/25 02:44:34;;;;;;;32.37;8.03;;;29.00;51.70;;;;;;5021023;28;20197;-68
2023/06/25 02:47:01;;;;;;;28.07;7.50;;;29.00;51.70;;;;;;5007874;28;20205;-67
2023/06/25 02:49:29;;;;;;;53.70;9.50;;;29.00;51.70;;;;;;5031601;28;20667;-68
2023/06/25 02:51:56;;;;;;;45.63;9.57;;;29.00;51.70;;;;;;5049615;28;20230;-66
2023/06/25 02:54:23;;;;;;;42.03;8.73;;;29.00;51.70;;;;;;5014355;28;20232;-61
2023/06/25 02:56:50;;;;;;;48.00;9.17;;;28.90;51.60;;;;;;5014611;28;20205;-64
2023/06/25 02:59:17;;;;;;;31.90;7.67;;;28.90;51.60;;;;;;5013766;28;20739;-67
2023/06/25 03:01:44;;;;;;;28.63;7.30;;;28.90;51.60;;;;;;5028494;28;20204;-63
2023/06/25 03:04:11;;;;;;;26.50;7.10;;;28.90;51.60;;;;;;5015561;28;20217;-64
2023/06/25 03:06:39;;;;;;;25.33;7.10;;;28.90;51.60;;;;;;5026130;28;20850;-69
2023/06/25 03:09:07;;;;;;;30.77;7.53;;;29.00;51.70;;;;;;5032156;28;20208;-65
2023/06/25 03:11:34;;;;;;;29.73;7.03;;;28.90;51.60;;;;;;5043525;28;20228;-62
2023/06/25 03:14:01;;;;;;;23.70;6.97;;;28.90;51.60;;;;;;5027300;28;20201;-71
2023/06/25 03:16:28;;;;;;;19.03;6.17;;;28.80;51.50;;;;;;5013654;28;20209;-67
2023/06/25 03:18:55;;;;;;;26.43;7.00;;;28.90;51.60;;;;;;5029563;28;20224;-69
2023/06/25 03:21:22;;;;;;;23.10;7.00;;;28.90;51.60;;;;;;5028604;28;20216;-68
2023/06/25 03:23:50;;;;;;;29.83;7.63;;;28.90;51.70;;;;;;5026883;28;20197;-62
2023/06/25 03:26:17;;;;;;;35.27;7.87;;;28.80;51.60;;;;;;5013715;28;20213;-63
2023/06/25 03:28:44;;;;;;;27.40;7.27;;;28.80;51.60;;;;;;5014021;28;20237;-63
2023/06/25 03:31:11;;;;;;;27.57;7.03;;;28.90;51.60;;;;;;5014109;28;20221;-62
2023/06/25 03:33:38;;;;;;;32.73;8.13;;;28.90;51.60;;;;;;5017000;28;20202;-67
2023/06/25 03:36:05;;;;;;;24.23;7.07;;;28.80;51.60;;;;;;5018470;28;20213;-71
2023/06/25 03:38:32;;;;;;;54.47;9.43;;;28.80;51.60;;;;;;5012985;28;20654;-70
2023/06/25 03:41:00;;;;;;;27.13;7.43;;;28.80;51.60;;;;;;5031459;28;20205;-71
2023/06/25 03:43:27;;;;;;;26.00;7.07;;;28.80;51.60;;;;;;5030169;28;20258;-64
2023/06/25 03:45:54;;;;;;;37.37;7.77;;;28.80;51.60;;;;;;5021914;28;20204;-68
2023/06/25 03:48:21;;;;;;;26.30;7.10;;;28.80;51.60;;;;;;5014011;28;20205;-64
2023/06/25 03:50:48;;;;;;;34.00;7.97;;;28.80;51.70;;;;;;5013710;28;20206;-66
2023/06/25 03:53:14;;;;;;;26.33;7.13;;;28.80;51.60;;;;;;5026782;28;20200;-62
2023/06/25 03:55:41;;;;;;;27.27;7.40;;;28.80;51.60;;;;;;5013709;28;20209;-65
2023/06/25 03:58:10;;;;;;;25.27;7.13;;;28.80;51.70;;;;;;5014065;28;20649;-67
2023/06/25 04:00:37;;;;;;;24.13;7.17;;;28.80;51.70;;;;;;5039303;28;20254;-61
2023/06/25 04:03:04;;;;;;;29.23;7.37;;;28.80;51.60;;;;;;5046321;28;20193;-65
2023/06/25 04:05:30;;;;;;;26.70;7.03;;;28.70;51.60;;;;;;5029869;28;20197;-62
2023/06/25 04:07:57;;;;;;;26.93;7.67;;;28.70;51.60;;;;;;5035128;28;20208;-66
2023/06/25 04:10:24;;;;;;;38.77;8.10;;;28.80;51.70;;;;;;5045128;28;20199;-66
2023/06/25 04:12:51;;;;;;;30.00;7.73;;;28.80;51.70;;;;;;5047662;28;20216;-62
2023/06/25 04:15:19;;;;;;;26.57;7.43;;;28.70;51.60;;;;;;5047706;28;20602;-62
2023/06/25 04:17:47;;;;;;;31.80;7.40;;;28.70;51.60;;;;;;5048808;28;20594;-61
2023/06/25 04:20:14;;;;;;;23.00;6.67;;;28.70;51.60;;;;;;5010389;28;20201;-61
2023/06/25 04:22:41;;;;;;;39.70;8.53;;;28.70;51.60;;;;;;5012869;28;20580;-62
2023/06/25 04:25:08;;;;;;;27.17;7.37;;;28.70;51.70;;;;;;5039656;28;20204;-62
2023/06/25 04:27:35;;;;;;;24.83;6.97;;;28.70;51.70;;;;;;5048459;28;20200;-61
2023/06/25 04:30:02;;;;;;;25.23;7.00;;;28.70;51.70;;;;;;5046354;28;20196;-64
2023/06/25 04:32:32;;;;;;;41.07;8.43;;;28.70;51.70;;;;;;5034994;28;20259;-67
2023/06/25 04:35:00;;;;;;;38.53;8.47;;;28.70;51.70;;;;;;5035878;28;20295;-62
2023/06/25 04:37:26;;;;;;;27.70;7.23;;;28.70;51.70;;;;;;5029555;28;20303;-63
2023/06/25 04:39:53;;;;;;;28.97;7.40;;;28.60;51.70;;;;;;5038450;28;20207;-62
2023/06/25 04:42:20;;;;;;;23.43;6.93;;;28.70;51.70;;;;;;5048604;28;20239;-63
2023/06/25 04:44:47;;;;;;;26.87;7.27;;;28.70;51.70;;;;;;5046654;28;20310;-63
2023/06/25 04:47:14;;;;;;;34.83;7.90;;;28.70;51.70;;;;;;5021425;28;20289;-64
2023/06/25 04:49:42;;;;;;;31.10;7.43;;;28.60;51.70;;;;;;5017345;28;20555;-69
2023/06/25 04:52:17;;;;;;;36.30;7.63;;;28.60;51.70;;;;;;5033821;28;20242;-62
2023/06/25 04:54:43;;;;;;;27.80;7.23;;;28.60;51.70;;;;;;5029061;28;20207;-62
2023/06/25 04:57:10;;;;;;;28.93;7.33;;;28.60;51.70;;;;;;5032479;28;20207;-69
2023/06/25 04:59:37;;;;;;;24.90;7.00;;;28.70;51.80;;;;;;5014946;28;20231;-64
2023/06/25 05:02:06;;;;;;;21.33;6.67;;;28.60;51.70;;;;;;5009045;28;20197;-63
2023/06/25 05:04:33;;;;;;;35.87;7.97;;;28.60;51.80;;;;;;5037525;28;20668;-66
2023/06/25 05:07:01;;;;;;;45.30;8.63;;;28.60;51.80;;;;;;5035749;28;20671;-68
2023/06/25 05:09:28;;;;;;;28.90;7.20;;;28.60;51.80;;;;;;5032856;28;20977;-72
2023/06/25 05:11:54;;;;;;;30.20;7.47;;;28.60;51.80;;;;;;5014557;28;20604;-67
2023/06/25 05:14:21;;;;;;;25.77;6.83;;;28.60;51.80;;;;;;5021492;28;20204;-62
2023/06/25 05:16:48;;;;;;;29.70;7.20;;;28.60;51.80;;;;;;5038328;28;20618;-68
2023/06/25 05:19:15;;;;;;;30.83;7.47;;;28.60;51.80;;;;;;5009093;28;20616;-70
2023/06/25 05:21:42;;;;;;;28.20;7.03;;;28.60;51.80;;;;;;5028909;28;20208;-72
2023/06/25 05:24:10;;;;;;;61.47;9.43;;;28.60;51.80;;;;;;5014404;28;20212;-69
2023/06/25 05:26:37;;;;;;;58.23;9.33;;;28.50;51.80;;;;;;5042352;28;20201;-68
2023/06/25 05:29:04;;;;;;;25.33;6.40;;;28.60;51.80;;;;;;5037139;28;20204;-65
2023/06/25 05:31:30;;;;;;;27.03;7.07;;;28.60;51.90;;;;;;5016075;28;20216;-61
2023/06/25 05:33:57;;;;;;;23.80;6.70;;;28.60;51.80;;;;;;5008361;28;20220;-61
2023/06/25 05:36:24;;;;;;;34.70;7.70;;;28.60;51.90;;;;;;5024421;28;20204;-67
2023/06/25 05:38:51;;;;;;;26.43;7.07;;;28.60;51.90;;;;;;5046978;28;20200;-70
2023/06/25 05:41:19;;;;;;;32.50;7.17;;;28.60;51.90;;;;;;5038677;28;20201;-66
2023/06/25 05:43:46;;;;;;;27.37;6.83;;;28.60;51.90;;;;;;5016148;28;20188;-70
2023/06/25 05:46:13;;;;;;;28.40;7.47;;;28.60;51.90;;;;;;5027324;28;20212;-66
2023/06/25 05:48:40;;;;;;;19.37;6.50;;;28.60;51.90;;;;;;5027035;28;20201;-64
2023/06/25 05:51:07;;;;;;;27.03;7.30;;;28.70;52.00;;;;;;5024886;28;20216;-70
2023/06/25 05:53:39;;;;;;;30.57;7.53;;;28.60;52.60;;;;;;5016157;28;20216;-68
2023/06/25 05:56:06;;;;;;;27.00;6.80;;;28.70;52.00;;;;;;5033263;28;20266;-66
2023/06/25 05:58:35;;;;;;;49.73;9.17;;;28.70;52.00;;;;;;5020101;28;20207;-66
2023/06/25 06:01:02;;;;;;;29.83;7.20;;;28.70;52.00;;;;;;5008483;28;20193;-61
2023/06/25 06:03:29;;;;;;;41.13;8.10;;;28.70;52.00;;;;;;5008225;28;20202;-65
2023/06/25 06:05:57;;;;;;;35.87;8.77;;;28.70;52.00;;;;;;5032334;28;20211;-64
2023/06/25 06:08:24;;;;;;;27.03;8.13;;;28.70;52.00;;;;;;5026863;28;20201;-70
2023/06/25 06:10:51;;;;;;;27.50;8.87;;;28.70;52.10;;;;;;5031783;28;20200;-71
2023/06/25 06:13:18;;;;;;;31.73;9.90;;;28.70;52.10;;;;;;5022725;28;20236;-70
2023/06/25 06:15:46;;;;;;;31.93;9.60;;;28.70;52.10;;;;;;5042737;28;20220;-72
2023/06/25 06:18:13;;;;;;;29.63;10.07;;;28.70;52.10;;;;;;5030341;28;20669;-70
2023/06/25 06:20:39;;;;;;;32.30;10.30;;;28.70;52.10;;;;;;5020542;28;20228;-71
2023/06/25 06:23:06;;;;;;;31.13;10.33;;;28.70;52.10;;;;;;5008989;28;20210;-62
2023/06/25 06:25:33;;;;;;;30.83;10.23;;;28.70;52.20;;;;;;5025587;28;20205;-62
2023/06/25 06:28:00;;;;;;;28.40;10.53;;;28.80;52.20;;;;;;5033782;28;20204;-62
2023/06/25 06:30:27;;;;;;;41.07;10.70;;;28.80;52.20;;;;;;5021991;28;20205;-62
2023/06/25 06:32:55;;;;;;;30.83;9.23;;;28.80;52.40;;;;;;5031742;28;20211;-61
2023/06/25 06:35:22;;;;;;;32.43;10.10;;;28.80;52.30;;;;;;5032568;28;20864;-62
2023/06/25 06:37:49;;;;;;;34.43;10.40;;;28.80;52.30;;;;;;5034766;28;20654;-62
2023/06/25 06:40:15;;;;;;;29.10;9.43;;;28.80;52.90;;;;;;5008259;28;20194;-67
2023/06/25 06:42:42;;;;;;;29.67;8.87;;;28.80;52.30;;;;;;5024753;28;20204;-66
2023/06/25 06:45:10;;;;;;;28.73;8.93;;;28.80;52.30;;;;;;5027523;28;20196;-63
2023/06/25 06:47:38;;;;;;;44.20;10.63;;;28.90;52.40;;;;;;5027571;28;20208;-61
2023/06/25 06:50:08;;;;;;;25.63;8.63;;;28.90;52.40;;;;;;5027452;28;20795;-66
2023/06/25 06:52:35;;;;;;;32.93;9.50;;;28.90;52.40;;;;;;5018143;28;20232;-64
2023/06/25 06:55:02;;;;;;;34.20;9.50;;;28.90;52.40;;;;;;5010990;28;20202;-63
2023/06/25 06:57:28;;;;;;;43.40;10.73;;;28.90;52.40;;;;;;5013217;28;20204;-66
2023/06/25 06:59:55;;;;;;;45.63;10.10;;;28.90;52.40;;;;;;5013924;28;20201;-64
2023/06/25 07:02:22;;;;;;;27.37;9.40;;;29.00;52.50;;;;;;5033703;28;20203;-70
2023/06/25 07:04:50;;;;;;;53.17;11.50;;;29.00;52.50;;;;;;5025288;28;20213;-70
2023/06/25 07:07:18;;;;;;;37.47;9.73;;;29.00;52.50;;;;;;5011678;28;20591;-61
2023/06/25 07:09:50;;;;;;;45.27;10.63;;;29.00;52.50;;;;;;5022715;28;20208;-62
2023/06/25 07:12:17;;;;;;;40.83;9.67;;;29.00;52.60;;;;;;5022073;28;20233;-61
2023/06/25 07:14:44;;;;;;;29.63;8.93;;;29.00;52.50;;;;;;5040004;28;20201;-63
2023/06/25 07:17:11;;;;;;;29.70;8.40;;;29.10;52.60;;;;;;5026085;28;20220;-69
2023/06/25 07:19:38;;;;;;;73.80;12.50;;;29.10;52.60;;;;;;5030667;28;20215;-66
2023/06/25 07:22:05;;;;;;;47.43;9.73;;;29.10;52.60;;;;;;5023155;28;20292;-62
2023/06/25 07:24:33;;;;;;;45.30;9.97;;;29.10;52.60;;;;;;5027869;28;20197;-61
2023/06/25 07:27:01;;;;;;;45.83;9.97;;;29.10;52.60;;;;;;5011860;28;20217;-64
2023/06/25 07:29:28;;;;;;;34.83;8.77;;;29.10;52.60;;;;;;5033623;28;20616;-61
2023/06/25 07:31:55;;;;;;;28.53;8.47;;;29.20;52.70;;;;;;5029535;28;20204;-64
2023/06/25 07:34:23;;;;;;;21.40;8.37;;;29.20;53.10;;;;;;5036935;28;20206;-61
2023/06/25 07:36:50;;;;;;;39.83;9.67;;;29.20;52.70;;;;;;5047239;28;20262;-61
2023/06/25 07:39:24;;;;;;;30.07;8.77;;;29.20;52.60;;;;;;5023719;28;20205;-61
2023/06/25 07:41:53;;;;;;;27.30;8.30;;;29.30;52.80;;;;;;5017856;28;20618;-62
2023/06/25 07:44:19;;;;;;;26.63;8.30;;;29.30;52.70;;;;;;5012458;28;20209;-63
2023/06/25 07:46:46;;;;;;;31.80;8.53;;;29.30;52.70;;;;;;5013612;28;20678;-65
2023/06/25 07:49:13;;;;;;;32.77;8.97;;;29.30;52.70;;;;;;5017195;28;20205;-66
2023/06/25 07:51:40;;;;;;;33.57;8.67;;;29.30;52.70;;;;;;5037407;28;20234;-62
2023/06/25 07:54:07;;;;;;;39.20;9.20;;;29.30;52.70;;;;;;5020332;28;20244;-61
2023/06/25 07:56:33;;;;;;;46.13;10.13;;;29.40;52.80;;;;;;5010248;28;20197;-63
2023/06/25 07:59:02;;;;;;;35.73;8.43;;;29.40;52.70;;;;;;5029981;28;20206;-65
2023/06/25 08:01:29;;;;;;;33.80;8.60;;;29.40;52.80;;;;;;5017813;28;20217;-64
2023/06/25 08:03:57;;;;;;;41.03;8.93;;;29.40;52.80;;;;;;5014091;28;20684;-62
2023/06/25 08:06:24;;;;;;;30.67;8.33;;;29.40;52.80;;;;;;5020071;28;20209;-61
2023/06/25 08:08:51;;;;;;;30.10;8.23;;;29.40;52.70;;;;;;5020811;28;20256;-62
2023/06/25 08:11:17;;;;;;;33.57;8.53;;;29.50;52.80;;;;;;5024122;28;20207;-65
2023/06/25 08:13:44;;;;;;;27.80;7.80;;;29.50;52.80;;;;;;5019081;28;20299;-64
2023/06/25 08:16:13;;;;;;;33.47;8.17;;;29.50;52.80;;;;;;5019970;28;20229;-64
2023/06/25 08:18:39;;;;;;;45.70;9.47;;;29.60;52.90;;;;;;5020403;28;20205;-61
2023/06/25 08:21:06;;;;;;;30.47;8.00;;;29.60;52.90;;;;;;5015249;28;20213;-62
2023/06/25 08:23:33;;;;;;;31.57;7.80;;;29.60;52.90;;;;;;5012718;28;20205;-61
2023/06/25 08:26:00;;;;;;;64.23;10.97;;;29.60;52.80;;;;;;5022236;28;20216;-61
2023/06/25 08:28:27;;;;;;;23.10;7.53;;;29.60;52.80;;;;;;5024046;28;20208;-61
2023/06/25 08:30:54;;;;;;;81.90;12.67;;;29.60;52.80;;;;;;5030391;28;20205;-66
2023/06/25 08:33:22;;;;;;;34.30;8.43;;;29.70;52.80;;;;;;5030764;28;20235;-67
2023/06/25 08:35:49;;;;;;;46.77;9.47;;;29.70;52.80;;;;;;5023049;28;20214;-62
2023/06/25 08:38:17;;;;;;;27.97;7.57;;;29.60;53.30;;;;;;5050445;28;20981;-68
2023/06/25 08:40:47;;;;;;;32.40;8.07;;;29.70;52.80;;;;;;5022045;28;20284;-61
2023/06/25 08:43:14;;;;;;;25.17;7.77;;;29.80;52.90;;;;;;5027362;28;20255;-62
2023/06/25 08:45:42;;;;;;;25.50;7.40;;;29.80;52.80;;;;;;5032402;28;20208;-62
2023/06/25 08:48:13;;;;;;;36.77;8.37;;;29.80;52.80;;;;;;5009526;28;20206;-62
2023/06/25 08:50:43;;;;;;;56.50;9.87;;;29.80;52.80;;;;;;5009294;28;20213;-64
2023/06/25 08:53:10;;;;;;;53.73;9.73;;;29.80;52.80;;;;;;5027448;28;20223;-61
2023/06/25 08:55:41;;;;;;;26.10;7.57;;;29.80;52.70;;;;;;5014803;28;20205;-62
2023/06/25 08:58:07;;;;;;;34.30;8.13;;;29.90;52.80;;;;;;5028211;28;20207;-61
2023/06/25 09:00:34;;;;;;;23.90;7.30;;;29.90;52.80;;;;;;5011260;28;20208;-63
2023/06/25 09:03:01;;;;;;;26.42;7.30;;;29.90;52.80;;;;;;5013950;28;20440;-64
2023/06/25 09:05:29;;;;;;;32.35;7.60;;;29.80;53.10;;;;;;5030914;28;20197;-64
2023/06/25 09:07:57;;;;;;;48.13;9.20;;;29.90;53.00;;;;;;5022144;28;20206;-63
2023/06/25 09:10:24;;;;;;;31.25;7.57;;;29.90;52.90;;;;;;5021935;28;20224;-63
2023/06/25 09:12:51;;;;;;;91.27;12.50;;;29.90;53.30;;;;;;5024909;28;20251;-63
2023/06/25 09:15:22;;;;;;;30.00;7.60;;;30.00;52.70;;;;;;5017793;28;20222;-63
2023/06/25 09:17:49;;;;;;;26.10;6.82;;;30.00;52.60;;;;;;5024504;28;20556;-64
2023/06/25 09:20:16;;;;;;;63.50;10.63;;;30.00;52.60;;;;;;5010369;28;20197;-63
2023/06/25 09:22:50;;;;;;;37.83;7.73;;;30.10;52.70;;;;;;5016465;28;20208;-63
2023/06/25 09:25:19;;;;;;;57.27;9.87;;;30.10;52.60;;;;;;5027885;28;20323;-64
2023/06/25 09:27:47;;;;;;;76.57;11.07;;;30.10;52.60;;;;;;5015356;28;20658;-63
2023/06/25 09:30:14;;;;;;;25.67;7.00;;;30.10;52.60;;;;;;5019140;28;20258;-64
2023/06/25 09:32:49;;;;;;;27.97;7.37;;;30.10;52.60;;;;;;5029263;28;20274;-65
2023/06/25 09:35:19;;;;;;;32.03;7.27;;;30.10;52.60;;;;;;5019769;28;20595;-63
2023/06/25 09:37:46;;;;;;;60.87;9.80;;;30.10;52.70;;;;;;5030314;28;20721;-66
2023/06/25 09:40:13;;;;;;;41.38;8.35;;;30.10;52.60;;;;;;5008478;28;20452;-64
2023/06/25 09:42:43;;;;;;;35.67;8.05;;;29.90;53.00;;;;;;5009167;28;20198;-69
2023/06/25 09:45:13;;;;;;;35.23;7.70;;;30.00;53.00;;;;;;5007749;28;20201;-65
2023/06/25 09:47:42;;;;;;;27.93;6.93;;;30.00;52.90;;;;;;5008555;28;20288;-64
2023/06/25 09:50:17;;;;;;;29.55;7.45;;;30.10;52.70;;;;;;5008517;28;20206;-64
2023/06/25 09:52:49;;;;;;;41.63;8.45;;;30.10;52.70;;;;;;5007412;28;20309;-64
2023/06/25 09:55:17;;;;;;;38.27;7.63;;;30.10;52.60;;;;;;5007414;28;20606;-64
2023/06/25 09:57:45;;;;;;;33.83;7.50;;;30.10;52.60;;;;;;5018860;28;20220;-65
2023/06/25 10:00:13;;;;;;;25.73;6.73;;;30.10;52.60;;;;;;5009179;28;20205;-68
2023/06/25 10:02:41;;;;;;;30.13;7.83;;;30.10;52.60;;;;;;5017150;28;20209;-64
2023/06/25 10:05:08;;;;;;;48.47;8.67;;;30.10;52.50;;;;;;5007111;28;20217;-64
2023/06/25 10:07:35;;;;;;;45.22;8.15;;;30.10;52.50;;;;;;5023020;28;20215;-72
2023/06/25 10:10:02;;;;;;;31.47;7.33;;;30.10;52.50;;;;;;5007077;28;20209;-64
2023/06/25 10:12:33;;;;;;;34.60;7.15;;;30.10;52.50;;;;;;5029878;28;20257;-64
2023/06/25 10:15:04;;;;;;;41.22;8.88;;;30.10;52.50;;;;;;5009385;28;20460;-63
2023/06/25 10:17:31;;;;;;;31.20;7.53;;;30.00;52.60;;;;;;5013745;28;20200;-65
2023/06/25 10:20:00;;;;;;;53.72;9.40;;;30.00;52.70;;;;;;5035114;28;20200;-64
2023/06/25 10:22:28;;;;;;;26.45;6.85;;;30.00;52.60;;;;;;5038152;28;20272;-68
2023/06/25 10:24:55;;;;;;;35.67;7.87;;;30.00;52.50;;;;;;5036966;28;20622;-66
2023/06/25 10:27:28;;;;;;;50.40;9.23;;;30.10;52.60;;;;;;5023069;28;20204;-64
2023/06/25 10:29:56;;;;;;;38.70;8.23;;;30.10;52.50;;;;;;5022806;28;20727;-65
2023/06/25 10:32:25;;;;;;;31.05;7.43;;;30.10;52.50;;;;;;5026812;28;20638;-64
2023/06/25 10:34:53;;;;;;;48.33;9.03;;;30.10;52.40;;;;;;5016603;28;20723;-66
2023/06/25 10:37:20;;;;;;;34.27;7.53;;;30.10;52.40;;;;;;5026770;28;20251;-65
2023/06/25 10:39:47;;;;;;;45.13;8.37;;;30.10;52.50;;;;;;5029486;28;20797;-66
2023/06/25 10:42:14;;;;;;;39.97;8.27;;;30.10;52.50;;;;;;5024430;28;20200;-64
2023/06/25 10:44:41;;;;;;;50.03;9.02;;;30.10;52.40;;;;;;5016514;28;20201;-64
2023/06/25 10:47:10;;;;;;;46.13;8.57;;;30.10;52.40;;;;;;5032142;28;20208;-65
2023/06/25 10:49:38;;;;;;;37.17;7.82;;;30.10;52.50;;;;;;5028657;28;20280;-60
2023/06/25 10:52:06;;;;;;;54.03;9.10;;;30.10;52.50;;;;;;5029987;28;20200;-64
2023/06/25 10:54:33;;;;;;;41.17;8.13;;;30.10;52.50;;;;;;5028165;28;20783;-60
2023/06/25 10:57:07;;;;;;;34.05;7.53;;;30.10;52.50;;;;;;5018229;28;20208;-60
2023/06/25 10:59:34;;;;;;;37.33;7.73;;;30.10;52.50;;;;;;5022608;28;20203;-60
2023/06/25 11:02:14;;;;;;;37.13;7.50;;;30.20;52.50;;;;;;5020457;28;20205;-67
2023/06/25 11:04:43;;;;;;;50.80;8.85;;;30.20;52.50;;;;;;5011140;28;20212;-60
2023/06/25 11:07:11;;;;;;;45.20;8.82;;;30.10;52.40;;;;;;5026357;28;20207;-62
2023/06/25 11:09:38;;;;;;;38.10;7.73;;;30.20;52.40;;;;;;5022839;28;20709;-60
2023/06/25 11:12:07;;;;;;;36.90;7.27;;;30.10;52.40;;;;;;5039884;28;20207;-61
2023/06/25 11:14:34;;;;;;;54.17;8.87;;;30.20;52.40;;;;;;5043571;28;20215;-65
2023/06/25 11:17:01;;;;;;;32.77;7.00;;;30.20;52.40;;;;;;5020456;28;20720;-66
2023/06/25 11:19:30;;;;;;;36.20;7.27;;;30.20;52.40;;;;;;5035278;28;20207;-60
2023/06/25 11:21:58;;;;;;;47.20;8.03;;;30.20;52.40;;;;;;5034638;28;20205;-61
2023/06/25 11:24:25;;;;;;;29.43;6.63;;;30.20;52.30;;;;;;5038679;28;20211;-63
2023/06/25 11:26:58;;;;;;;48.97;8.27;;;30.20;52.40;;;;;;5019296;28;20284;-63
2023/06/25 11:29:34;;;;;;;38.87;7.57;;;30.20;52.30;;;;;;5011537;28;20201;-60
2023/06/25 11:32:02;;;;;;;35.92;7.25;;;30.20;52.30;;;;;;5026260;28;20196;-60
2023/06/25 11:34:29;;;;;;;36.43;7.27;;;30.30;52.30;;;;;;5012505;28;20229;-60
2023/06/25 11:36:57;;;;;;;34.70;7.18;;;30.20;52.20;;;;;;5019709;28;20209;-66
2023/06/25 11:39:24;;;;;;;40.23;7.90;;;30.20;52.30;;;;;;5030049;28;20205;-61
2023/06/25 11:41:51;;;;;;;30.08;7.03;;;30.30;52.20;;;;;;5013336;28;20210;-61
2023/06/25 11:44:18;;;;;;;33.35;7.13;;;30.30;52.30;;;;;;5037616;28;20203;-61
2023/06/25 11:46:46;;;;;;;34.38;7.07;;;30.30;52.20;;;;;;5043695;28;20197;-60
2023/06/25 11:49:13;;;;;;;34.35;7.15;;;30.30;52.20;;;;;;5040385;28;20214;-60
2023/06/25 11:51:40;;;;;;;71.77;10.50;;;30.30;52.20;;;;;;5044693;28;20208;-62
2023/06/25 11:54:08;;;;;;;36.08;7.60;;;30.30;52.20;;;;;;5035895;28;20227;-60
2023/06/25 11:56:35;;;;;;;28.77;6.90;;;30.20;52.10;;;;;;5023343;28;20676;-60
2023/06/25 11:59:02;;;;;;;42.33;7.97;;;30.30;52.20;;;;;;5038391;28;20196;-60
2023/06/25 12:01:30;;;;;;;62.33;9.63;;;30.30;52.10;;;;;;5038949;28;20197;-60
2023/06/25 12:03:57;;;;;;;57.13;9.13;;;30.30;52.10;;;;;;5021911;28;20205;-60
2023/06/25 12:06:26;;;;;;;63.17;9.63;;;30.30;52.10;;;;;;5022429;28;20197;-61
2023/06/25 12:08:52;;;;;;;88.00;12.23;;;30.30;52.00;;;;;;5009842;28;20320;-66
2023/06/25 12:11:21;;;;;;;38.03;8.27;;;30.30;51.90;;;;;;5010674;28;20662;-60
2023/06/25 12:13:48;;;;;;;38.78;8.23;;;30.30;51.70;;;;;;5021114;28;20223;-70
2023/06/25 12:16:15;;;;;;;47.92;8.57;;;30.30;51.70;;;;;;5023839;28;20240;-68
2023/06/25 12:18:42;;;;;;;30.48;7.35;;;30.30;51.50;;;;;;5029370;28;20201;-68
2023/06/25 12:21:09;;;;;;;61.83;9.77;;;30.30;51.70;;;;;;5030323;28;20923;-67
2023/06/25 12:23:35;;;;;;;37.15;8.10;;;30.30;51.70;;;;;;5027625;28;20869;-69
2023/06/25 12:26:02;;;;;;;41.40;8.20;;;30.30;51.70;;;;;;5035230;28;20211;-74
2023/06/25 12:28:30;;;;;;;58.67;9.47;;;30.30;51.70;;;;;;5017940;28;20206;-63
2023/06/25 12:30:57;;;;;;;40.95;8.43;;;30.30;51.60;;;;;;5029112;28;20192;-66
2023/06/25 12:33:24;;;;;;;37.10;7.60;;;30.30;51.60;;;;;;5017201;28;20198;-61
2023/06/25 12:35:51;;;;;;;58.20;9.67;;;30.40;51.80;;;;;;5018859;28;20213;-62
2023/06/25 12:38:19;;;;;;;48.23;8.57;;;30.30;51.50;;;;;;5018106;28;20202;-65